Time;durP1;ratioP1;P1;durP2;ratioP2;P2;SDS_P1;SDS_P2;PMS_P1;PMS_P2;Temp;Humidity;BMP_temperature;BMP_pressure;BME280_temperature;BME280_humidity;BME280_pressure;Samples;Min_cycle;Max_cycle;Signal;HPM_P1;HPM_P2
2022/12/06 00:01:31;;;;;;;13.77;9.15;;;;;;;;;;4807492;29;20055;-72
2022/12/06 00:03:59;;;;;;;18.98;10.73;;;;;;;;;;4806928;29;20556;-72
2022/12/06 00:06:27;;;;;;;21.35;10.40;;;;;;;;;;4807034;29;20050;-72
2022/12/06 00:08:53;;;;;;;14.10;9.68;;;;;;;;;;4807220;29;20095;-72
2022/12/06 00:11:21;;;;;;;16.40;9.05;;;;;;;;;;4807325;29;20051;-72
2022/12/06 00:13:47;;;;;;;14.57;9.07;;;;;;;;;;4806879;29;20146;-72
2022/12/06 00:16:15;;;;;;;15.32;9.63;;;;;;;;;;4806933;29;20050;-72
2022/12/06 00:18:42;;;;;;;33.40;19.70;;;;;;;;;;4807460;29;20050;-73
2022/12/06 00:21:14;;;;;;;26.58;14.98;;;;;;;;;;4806845;29;20047;-72
2022/12/06 00:23:45;;;;;;;17.15;9.50;;;;;;;;;;4806476;29;20061;-73
2022/12/06 00:26:11;;;;;;;;;;;;;;;;;;4807517;29;20047;-73
2022/12/06 00:28:37;;;;;;;12.43;8.45;;;;;;;;;;4807289;29;19913;-72
2022/12/06 00:31:05;;;;;;;15.77;8.43;;;;;;;;;;4806692;29;20038;-72
2022/12/06 00:33:33;;;;;;;14.27;8.48;;;;;;;;;;4807011;29;20058;-72
2022/12/06 00:36:00;;;;;;;16.15;9.05;;;;;;;;;;4806985;29;20391;-72
2022/12/06 00:38:27;;;;;;;13.10;8.68;;;;;;;;;;4806591;29;20054;-72
2022/12/06 00:41:00;;;;;;;17.55;10.10;;;;;;;;;;4807216;29;20099;-72
2022/12/06 00:43:26;;;;;;;20.10;9.65;;;;;;;;;;4807095;29;20057;-72
2022/12/06 00:45:52;;;;;;;12.15;7.55;;;;;;;;;;4806589;29;20058;-72
2022/12/06 00:48:18;;;;;;;12.70;7.30;;;;;;;;;;4807768;29;20047;-72
2022/12/06 00:50:45;;;;;;;9.75;6.43;;;;;;;;;;4806911;29;20050;-72
2022/12/06 00:53:11;;;;;;;10.38;6.38;;;;;;;;;;4809982;29;20483;-73
2022/12/06 00:55:37;;;;;;;11.48;7.28;;;;;;;;;;4810686;29;20063;-72
2022/12/06 00:58:03;;;;;;;12.13;7.10;;;;;;;;;;4810276;29;20050;-72
2022/12/06 01:00:29;;;;;;;12.50;7.13;;;;;;;;;;4810975;29;20043;-72
2022/12/06 01:02:57;;;;;;;10.70;7.25;;;;;;;;;;4810430;29;20050;-72
2022/12/06 01:05:23;;;;;;;13.23;7.97;;;;;;;;;;4810622;29;20046;-72
2022/12/06 01:07:49;;;;;;;12.07;6.75;;;;;;;;;;4809907;29;20047;-72
2022/12/06 01:10:15;;;;;;;10.85;6.45;;;;;;;;;;4810094;29;20049;-72
2022/12/06 01:12:42;;;;;;;11.20;7.43;;;;;;;;;;4810342;29;20051;-72
2022/12/06 01:15:08;;;;;;;13.02;7.15;;;;;;;;;;4810375;29;20077;-72
2022/12/06 01:17:34;;;;;;;11.05;7.53;;;;;;;;;;4809960;29;20050;-72
2022/12/06 01:20:01;;;;;;;11.27;6.97;;;;;;;;;;4810059;29;20488;-72
2022/12/06 01:22:27;;;;;;;9.73;6.93;;;;;;;;;;4809972;29;20039;-72
2022/12/06 01:24:53;;;;;;;12.25;7.45;;;;;;;;;;4809802;29;20046;-72
2022/12/06 01:27:19;;;;;;;16.60;7.95;;;;;;;;;;4809706;29;20542;-72
2022/12/06 01:29:45;;;;;;;12.20;8.00;;;;;;;;;;4810206;29;20054;-72
2022/12/06 01:32:11;;;;;;;16.45;8.65;;;;;;;;;;4810018;29;20070;-72
2022/12/06 01:34:37;;;;;;;12.45;7.80;;;;;;;;;;4809774;29;20054;-72
2022/12/06 01:37:04;;;;;;;12.30;7.43;;;;;;;;;;4809689;29;20035;-72
2022/12/06 01:39:30;;;;;;;11.80;7.03;;;;;;;;;;4809782;29;20568;-72
2022/12/06 01:41:56;;;;;;;10.45;6.97;;;;;;;;;;4810011;29;20491;-72
2022/12/06 01:44:41;;;;;;;10.75;6.35;;;;;;;;;;4809426;29;20051;-72
2022/12/06 01:47:16;;;;;;;10.77;6.22;;;;;;;;;;4809117;29;20086;-72
2022/12/06 01:49:44;;;;;;;8.93;6.18;;;;;;;;;;4809296;29;20110;-72
2022/12/06 01:52:12;;;;;;;11.02;6.50;;;;;;;;;;4809199;29;20054;-72
2022/12/06 01:54:39;;;;;;;9.90;6.53;;;;;;;;;;4809168;29;20051;-72
2022/12/06 01:57:06;;;;;;;11.23;6.80;;;;;;;;;;4809203;29;20051;-72
2022/12/06 01:59:32;;;;;;;7.85;5.90;;;;;;;;;;4809407;29;20046;-72
2022/12/06 02:01:58;;;;;;;7.85;5.80;;;;;;;;;;4809205;29;20499;-72
2022/12/06 02:04:25;;;;;;;8.38;5.80;;;;;;;;;;4808518;29;20047;-72
2022/12/06 02:06:52;;;;;;;8.77;5.85;;;;;;;;;;4808851;29;20137;-72
2022/12/06 02:09:18;;;;;;;8.60;5.85;;;;;;;;;;4808753;29;20043;-72
2022/12/06 02:11:46;;;;;;;6.85;5.32;;;;;;;;;;4809273;29;20057;-72
2022/12/06 02:14:14;;;;;;;10.10;5.75;;;;;;;;;;4808624;29;20075;-72
2022/12/06 02:16:53;;;;;;;8.07;5.72;;;;;;;;;;4808442;29;20047;-72
2022/12/06 02:19:38;;;;;;;7.95;5.82;;;;;;;;;;4809106;29;20095;-72
2022/12/06 02:22:09;;;;;;;6.78;5.10;;;;;;;;;;4808882;29;20516;-72
2022/12/06 02:24:50;;;;;;;6.88;5.03;;;;;;;;;;4808494;29;20093;-72
2022/12/06 02:27:22;;;;;;;9.90;5.93;;;;;;;;;;4808680;29;20126;-72
2022/12/06 02:29:49;;;;;;;6.60;4.90;;;;;;;;;;4808577;29;20051;-72
2022/12/06 02:32:21;;;;;;;6.05;4.53;;;;;;;;;;4808714;29;20046;-72
2022/12/06 02:35:04;;;;;;;7.10;4.80;;;;;;;;;;4808460;29;20145;-72
2022/12/06 02:37:36;;;;;;;11.63;5.63;;;;;;;;;;4808410;29;20047;-72
2022/12/06 02:40:13;;;;;;;7.25;5.18;;;;;;;;;;4808420;29;20043;-72
2022/12/06 02:42:45;;;;;;;7.72;4.85;;;;;;;;;;4808198;29;20099;-72
2022/12/06 02:45:18;;;;;;;8.90;4.97;;;;;;;;;;4808617;29;20134;-72
2022/12/06 02:47:45;;;;;;;8.32;5.05;;;;;;;;;;4808445;29;20057;-72
2022/12/06 02:50:16;;;;;;;7.40;4.65;;;;;;;;;;4808233;29;20054;-72
2022/12/06 02:52:43;;;;;;;6.97;4.53;;;;;;;;;;4808238;29;20050;-72
2022/12/06 02:55:11;;;;;;;6.97;4.25;;;;;;;;;;4808858;29;20055;-72
2022/12/06 02:57:45;;;;;;;7.63;5.25;;;;;;;;;;4808104;29;20560;-72
2022/12/06 03:00:29;;;;;;;8.13;4.43;;;;;;;;;;4808646;29;20046;-72
2022/12/06 03:03:03;;;;;;;6.78;4.65;;;;;;;;;;4808039;29;20062;-72
2022/12/06 03:05:35;;;;;;;8.52;4.97;;;;;;;;;;4808314;29;20051;-72
2022/12/06 03:08:06;;;;;;;6.57;4.40;;;;;;;;;;4808053;29;20683;-72
2022/12/06 03:10:32;;;;;;;7.05;4.57;;;;;;;;;;4808268;29;20051;-72
2022/12/06 03:13:13;;;;;;;8.07;5.10;;;;;;;;;;4807645;29;20110;-72
2022/12/06 03:15:49;;;;;;;7.22;4.65;;;;;;;;;;4808053;29;20055;-72
2022/12/06 03:18:19;;;;;;;6.50;4.10;;;;;;;;;;4808067;29;20543;-72
2022/12/06 03:20:53;;;;;;;5.82;4.35;;;;;;;;;;4808029;29;20047;-72
2022/12/06 03:23:31;;;;;;;7.47;5.03;;;;;;;;;;4808026;29;20043;-72
2022/12/06 03:25:59;;;;;;;8.27;4.47;;;;;;;;;;4807928;29;20051;-72
2022/12/06 03:28:26;;;;;;;8.98;5.03;;;;;;;;;;4807701;29;20043;-72
2022/12/06 03:30:52;;;;;;;5.95;4.13;;;;;;;;;;4807623;29;20051;-72
2022/12/06 03:33:21;;;;;;;5.05;3.20;;;;;;;;;;4808479;29;20570;-72
2022/12/06 03:35:48;;;;;;;5.80;3.40;;;;;;;;;;4807819;29;20051;-72
2022/12/06 03:38:18;;;;;;;6.18;4.18;;;;;;;;;;4807621;29;20065;-72
2022/12/06 03:40:46;;;;;;;5.88;3.97;;;;;;;;;;4807758;29;20111;-72
2022/12/06 03:43:13;;;;;;;6.72;4.05;;;;;;;;;;4808061;29;20050;-72
2022/12/06 03:45:59;;;;;;;6.10;4.20;;;;;;;;;;4807467;29;20146;-72
2022/12/06 03:48:37;;;;;;;6.40;4.20;;;;;;;;;;4797826;29;20096;-72
2022/12/06 03:51:12;;;;;;;4.35;3.53;;;;;;;;;;4807373;29;20054;-72
2022/12/06 03:53:52;;;;;;;4.13;3.05;;;;;;;;;;4807476;29;20057;-72
2022/12/06 03:56:19;;;;;;;4.88;3.20;;;;;;;;;;4807493;29;20104;-72
2022/12/06 03:58:45;;;;;;;4.20;3.30;;;;;;;;;;4807365;29;20047;-72
2022/12/06 04:01:11;;;;;;;6.32;3.70;;;;;;;;;;4807329;29;20075;-72
2022/12/06 04:03:37;;;;;;;5.72;4.03;;;;;;;;;;4807667;29;20069;-72
2022/12/06 04:06:05;;;;;;;5.68;3.97;;;;;;;;;;4807555;29;20077;-72
2022/12/06 04:08:31;;;;;;;4.93;3.20;;;;;;;;;;4807398;29;20042;-72
2022/12/06 04:10:57;;;;;;;5.10;3.35;;;;;;;;;;4807504;29;20141;-72
2022/12/06 04:13:23;;;;;;;7.07;4.40;;;;;;;;;;4808014;29;20117;-72
2022/12/06 04:15:49;;;;;;;6.07;4.03;;;;;;;;;;4807464;29;20047;-72
2022/12/06 04:18:17;;;;;;;4.47;3.05;;;;;;;;;;4807126;29;20360;-72
2022/12/06 04:23:29;;;;;;;5.75;3.65;;;;;;;;;;4806788;29;20045;-72
2022/12/06 04:25:55;;;;;;;3.05;2.72;;;;;;;;;;4807114;29;20058;-72
2022/12/06 04:39:24;;;;;;;5.75;3.88;;;;;;;;;;4809229;29;20624;-72
2022/12/06 04:44:35;;;;;;;4.50;2.97;;;;;;;;;;4808906;29;20053;-72
2022/12/06 04:47:01;;;;;;;4.18;3.10;;;;;;;;;;4810129;29;20504;-72
2022/12/06 04:49:27;;;;;;;5.53;4.07;;;;;;;;;;4809249;29;20042;-72
2022/12/06 04:51:54;;;;;;;4.53;3.55;;;;;;;;;;4809911;29;20398;-72
2022/12/06 04:54:20;;;;;;;6.60;3.45;;;;;;;;;;4810724;29;20057;-72
2022/12/06 04:56:46;;;;;;;4.97;3.35;;;;;;;;;;4810497;29;20095;-72
2022/12/06 04:59:12;;;;;;;4.93;3.25;;;;;;;;;;4809897;29;20047;-73
2022/12/06 05:01:39;;;;;;;6.38;3.42;;;;;;;;;;4810532;29;20042;-72
2022/12/06 05:04:05;;;;;;;7.90;3.58;;;;;;;;;;4810129;29;20111;-72
2022/12/06 05:06:31;;;;;;;6.90;3.80;;;;;;;;;;4810494;29;20046;-72
2022/12/06 05:08:57;;;;;;;5.93;4.32;;;;;;;;;;4810287;29;20112;-72
2022/12/06 05:11:23;;;;;;;6.50;3.97;;;;;;;;;;4810682;29;20054;-72
2022/12/06 05:13:49;;;;;;;6.78;4.15;;;;;;;;;;4810407;29;20061;-72
2022/12/06 05:16:15;;;;;;;6.57;3.88;;;;;;;;;;4809944;29;20407;-72
2022/12/06 05:18:41;;;;;;;7.07;3.70;;;;;;;;;;4810083;29;20431;-72
2022/12/06 05:21:12;;;;;;;6.82;3.95;;;;;;;;;;4808321;29;20047;-72
2022/12/06 05:23:38;;;;;;;5.82;3.78;;;;;;;;;;4807096;29;20043;-72
2022/12/06 05:26:06;;;;;;;3.42;2.80;;;;;;;;;;4801451;29;20058;-74
2022/12/06 05:28:33;;;;;;;7.18;3.60;;;;;;;;;;4803571;29;20115;-70
2022/12/06 05:30:59;;;;;;;5.63;3.50;;;;;;;;;;4794105;29;20047;-70
2022/12/06 05:33:25;;;;;;;5.57;3.20;;;;;;;;;;4809314;29;20039;-70
2022/12/06 05:35:51;;;;;;;4.25;2.92;;;;;;;;;;4809826;29;20059;-70
2022/12/06 05:38:18;;;;;;;4.00;2.83;;;;;;;;;;4808533;29;20050;-70
2022/12/06 05:40:44;;;;;;;4.57;2.95;;;;;;;;;;4809440;29;20042;-70
2022/12/06 05:43:10;;;;;;;4.00;2.88;;;;;;;;;;4809050;29;20103;-71
2022/12/06 05:45:37;;;;;;;4.18;2.90;;;;;;;;;;4803188;29;20051;-71
2022/12/06 05:48:03;;;;;;;4.57;3.30;;;;;;;;;;4807828;29;20050;-71
2022/12/06 05:50:30;;;;;;;4.55;2.70;;;;;;;;;;4808754;29;20061;-71
2022/12/06 05:52:56;;;;;;;5.47;2.78;;;;;;;;;;4809326;29;20047;-71
2022/12/06 05:55:22;;;;;;;4.15;2.88;;;;;;;;;;4808573;29;20055;-71
2022/12/06 05:57:49;;;;;;;4.63;2.88;;;;;;;;;;4805361;29;20050;-70
2022/12/06 06:00:16;;;;;;;7.00;3.17;;;;;;;;;;4816215;29;20034;-70
2022/12/06 06:02:42;;;;;;;4.93;3.20;;;;;;;;;;4808883;29;20043;-71
2022/12/06 06:05:08;;;;;;;6.28;4.10;;;;;;;;;;4805117;29;20051;-71
2022/12/06 06:07:34;;;;;;;6.57;3.75;;;;;;;;;;4809015;29;20129;-71
2022/12/06 06:10:01;;;;;;;6.05;3.63;;;;;;;;;;4809465;29;20512;-71
2022/12/06 06:12:27;;;;;;;7.30;4.47;;;;;;;;;;4793728;29;20047;-71
2022/12/06 06:14:53;;;;;;;6.72;3.58;;;;;;;;;;4807025;29;20086;-71
2022/12/06 06:17:19;;;;;;;6.35;2.95;;;;;;;;;;4808889;29;20496;-71
2022/12/06 06:19:45;;;;;;;4.80;3.22;;;;;;;;;;4808309;29;20043;-74
2022/12/06 06:22:12;;;;;;;4.63;3.03;;;;;;;;;;4808404;29;20047;-72
2022/12/06 06:24:39;;;;;;;5.07;3.45;;;;;;;;;;4808419;29;20590;-71
2022/12/06 06:27:05;;;;;;;4.82;3.22;;;;;;;;;;4808432;29;20070;-71
2022/12/06 06:29:31;;;;;;;6.10;3.65;;;;;;;;;;4808929;29;20081;-70
2022/12/06 06:31:57;;;;;;;4.78;3.28;;;;;;;;;;4808611;29;20121;-70
2022/12/06 06:34:27;;;;;;;5.97;3.08;;;;;;;;;;4808277;29;20070;-69
2022/12/06 06:36:53;;;;;;;4.03;2.92;;;;;;;;;;4808183;29;20129;-70
2022/12/06 06:39:19;;;;;;;3.92;3.00;;;;;;;;;;4809186;29;20086;-71
2022/12/06 06:41:45;;;;;;;4.25;3.03;;;;;;;;;;4808634;29;20046;-69
2022/12/06 06:44:12;;;;;;;8.45;4.00;;;;;;;;;;4808347;29;20058;-69
2022/12/06 06:46:38;;;;;;;97.47;54.05;;;;;;;;;;4807943;29;20216;-69
2022/12/06 06:49:04;;;;;;;12.52;9.02;;;;;;;;;;4807727;29;20144;-69
2022/12/06 06:51:31;;;;;;;8.82;5.40;;;;;;;;;;4804879;29;20065;-69
2022/12/06 06:53:58;;;;;;;7.40;4.50;;;;;;;;;;4803231;29;20055;-69
2022/12/06 06:56:24;;;;;;;13.98;8.20;;;;;;;;;;4797262;29;20077;-69
2022/12/06 06:58:50;;;;;;;11.30;4.93;;;;;;;;;;4798838;29;20511;-69
2022/12/06 07:01:18;;;;;;;14.88;9.23;;;;;;;;;;4798164;29;20043;-69
2022/12/06 07:03:44;;;;;;;13.25;8.10;;;;;;;;;;4797049;29;20047;-69
2022/12/06 07:06:11;;;;;;;12.07;7.85;;;;;;;;;;4798994;29;20100;-69
2022/12/06 07:08:38;;;;;;;9.30;5.72;;;;;;;;;;4794234;29;20043;-69
2022/12/06 07:11:04;;;;;;;8.57;5.40;;;;;;;;;;4789811;30;20042;-69
2022/12/06 07:13:30;;;;;;;8.27;5.30;;;;;;;;;;4790136;30;20093;-69
2022/12/06 07:15:57;;;;;;;7.47;4.40;;;;;;;;;;4789042;30;20055;-68
2022/12/06 07:18:24;;;;;;;11.18;6.05;;;;;;;;;;4790087;30;20131;-68
2022/12/06 07:20:57;;;;;;;6.97;4.47;;;;;;;;;;4790020;30;20051;-68
2022/12/06 07:23:23;;;;;;;10.15;6.70;;;;;;;;;;4789739;30;20131;-69
2022/12/06 07:25:58;;;;;;;11.18;6.53;;;;;;;;;;4790138;30;20542;-69
2022/12/06 07:28:24;;;;;;;9.82;5.75;;;;;;;;;;4790021;30;20118;-68
2022/12/06 07:30:51;;;;;;;12.52;6.43;;;;;;;;;;4789697;30;20522;-68
2022/12/06 07:33:17;;;;;;;11.70;7.30;;;;;;;;;;4789807;30;20055;-68
2022/12/06 07:35:43;;;;;;;12.50;6.70;;;;;;;;;;4790046;30;20055;-68
2022/12/06 07:38:09;;;;;;;12.15;7.68;;;;;;;;;;4789438;30;20078;-68
2022/12/06 07:40:35;;;;;;;12.88;7.35;;;;;;;;;;4789704;30;20043;-68
2022/12/06 07:45:46;;;;;;;16.63;10.82;;;;;;;;;;4789274;30;20058;-69
2022/12/06 07:48:12;;;;;;;19.33;12.32;;;;;;;;;;4789978;30;20043;-68
2022/12/06 07:50:38;;;;;;;24.08;16.33;;;;;;;;;;4789699;30;20047;-68
2022/12/06 07:53:05;;;;;;;51.88;36.97;;;;;;;;;;4789493;30;20049;-68
2022/12/06 07:55:31;;;;;;;33.42;23.40;;;;;;;;;;4789592;30;20066;-69
2022/12/06 07:57:57;;;;;;;29.30;21.02;;;;;;;;;;4789304;30;20047;-68
2022/12/06 08:00:24;;;;;;;28.80;19.33;;;;;;;;;;4789053;30;20055;-69
2022/12/06 08:02:51;;;;;;;25.85;15.27;;;;;;;;;;4788126;30;20039;-69
2022/12/06 08:05:17;;;;;;;20.92;12.45;;;;;;;;;;4789399;30;20559;-69
2022/12/06 08:07:43;;;;;;;18.25;10.88;;;;;;;;;;4788815;30;20155;-68
2022/12/06 08:10:09;;;;;;;15.50;9.68;;;;;;;;;;4789228;30;20133;-69
2022/12/06 08:12:36;;;;;;;14.35;8.88;;;;;;;;;;4789518;30;20062;-69
2022/12/06 08:15:02;;;;;;;14.05;7.60;;;;;;;;;;4789040;30;20093;-68
2022/12/06 08:17:29;;;;;;;18.80;15.07;;;;;;;;;;4789181;30;20080;-68
2022/12/06 08:19:55;;;;;;;20.05;15.60;;;;;;;;;;4789168;30;20083;-69
2022/12/06 08:22:21;;;;;;;9.82;6.68;;;;;;;;;;4789200;30;20051;-68
2022/12/06 08:24:48;;;;;;;8.68;6.22;;;;;;;;;;4789148;30;20055;-69
2022/12/06 08:27:14;;;;;;;11.63;7.47;;;;;;;;;;4788844;30;20043;-68
2022/12/06 08:29:40;;;;;;;12.95;8.00;;;;;;;;;;4789111;30;20082;-68
2022/12/06 08:32:06;;;;;;;17.02;10.23;;;;;;;;;;4788713;30;20061;-68
2022/12/06 08:34:34;;;;;;;11.10;7.18;;;;;;;;;;4789360;30;20138;-68
2022/12/06 08:37:00;;;;;;;19.40;10.60;;;;;;;;;;4788894;30;20078;-68
2022/12/06 08:39:27;;;;;;;20.83;10.00;;;;;;;;;;4789558;30;20051;-69
2022/12/06 08:42:01;;;;;;;14.27;8.55;;;;;;;;;;4789122;30;20161;-68
2022/12/06 08:44:28;;;;;;;13.45;8.15;;;;;;;;;;4788387;30;20052;-68
2022/12/06 08:46:54;;;;;;;13.18;7.47;;;;;;;;;;4788991;29;20112;-68
2022/12/06 08:49:21;;;;;;;14.93;8.32;;;;;;;;;;4789745;30;20149;-69
2022/12/06 08:51:48;;;;;;;18.65;10.13;;;;;;;;;;4788845;30;20130;-68
2022/12/06 08:54:15;;;;;;;19.08;11.68;;;;;;;;;;4789236;30;20051;-68
2022/12/06 08:56:41;;;;;;;24.30;13.90;;;;;;;;;;4789155;30;20100;-68
2022/12/06 08:59:07;;;;;;;23.17;13.20;;;;;;;;;;4788880;30;20496;-68
2022/12/06 09:01:34;;;;;;;39.67;17.50;;;;;;;;;;4789467;30;20052;-68
2022/12/06 09:04:01;;;;;;;25.15;14.85;;;;;;;;;;4789563;30;20043;-69
2022/12/06 09:06:27;;;;;;;25.27;12.80;;;;;;;;;;4788920;30;20110;-68
2022/12/06 09:08:55;;;;;;;23.20;12.15;;;;;;;;;;4788801;30;20043;-68
2022/12/06 09:11:21;;;;;;;20.90;12.38;;;;;;;;;;4788963;30;20127;-68
2022/12/06 09:13:47;;;;;;;25.95;13.95;;;;;;;;;;4791233;29;20047;-68
2022/12/06 09:16:15;;;;;;;26.55;14.15;;;;;;;;;;4792171;30;20134;-68
2022/12/06 09:18:41;;;;;;;26.63;14.30;;;;;;;;;;4792677;30;20100;-69
2022/12/06 09:21:12;;;;;;;30.80;15.73;;;;;;;;;;4792243;30;20047;-68
2022/12/06 09:23:38;;;;;;;54.38;23.60;;;;;;;;;;4792012;30;20051;-68
2022/12/06 09:26:05;;;;;;;47.53;21.77;;;;;;;;;;4792006;30;20051;-68
2022/12/06 09:28:33;;;;;;;41.85;20.35;;;;;;;;;;4792225;30;20522;-68
2022/12/06 09:30:59;;;;;;;40.67;19.88;;;;;;;;;;4791937;30;20561;-68
2022/12/06 09:33:25;;;;;;;39.65;17.95;;;;;;;;;;4792283;30;20563;-69
2022/12/06 09:35:52;;;;;;;34.00;19.25;;;;;;;;;;4792067;30;20079;-68
2022/12/06 09:38:20;;;;;;;93.75;37.90;;;;;;;;;;4791667;30;20039;-68
2022/12/06 09:40:46;;;;;;;54.03;25.67;;;;;;;;;;4791766;30;20529;-68
2022/12/06 09:43:13;;;;;;;40.15;20.63;;;;;;;;;;4791832;30;20487;-68
2022/12/06 09:45:39;;;;;;;16.85;13.05;;;;;;;;;;4791415;30;20039;-69
2022/12/06 09:48:14;;;;;;;13.75;10.05;;;;;;;;;;4791971;30;20039;-68
2022/12/06 09:50:47;;;;;;;15.38;10.25;;;;;;;;;;4792196;30;20128;-69
2022/12/06 09:53:21;;;;;;;16.02;9.68;;;;;;;;;;4791306;30;20051;-68
2022/12/06 09:55:47;;;;;;;13.25;9.90;;;;;;;;;;4791654;30;20138;-69
2022/12/06 09:58:22;;;;;;;11.75;9.23;;;;;;;;;;4791523;30;20043;-68
2022/12/06 10:00:54;;;;;;;12.77;9.25;;;;;;;;;;4791173;30;20051;-69
2022/12/06 10:03:39;;;;;;;12.15;8.30;;;;;;;;;;4791468;30;20053;-69
2022/12/06 10:06:10;;;;;;;9.20;7.25;;;;;;;;;;4791578;30;20046;-69
2022/12/06 10:08:55;;;;;;;9.68;7.30;;;;;;;;;;4791146;30;20039;-69
2022/12/06 10:11:33;;;;;;;12.05;5.95;;;;;;;;;;4791712;30;20051;-68
2022/12/06 10:14:00;;;;;;;9.05;5.75;;;;;;;;;;4791533;30;20058;-69
2022/12/06 10:16:32;;;;;;;8.23;5.88;;;;;;;;;;4791196;30;20051;-69
2022/12/06 10:19:17;;;;;;;9.73;5.55;;;;;;;;;;4790901;30;20050;-69
2022/12/06 10:21:53;;;;;;;8.07;5.30;;;;;;;;;;4790887;30;20058;-69
2022/12/06 10:24:25;;;;;;;7.60;4.95;;;;;;;;;;4790425;29;20051;-69
2022/12/06 10:26:55;;;;;;;7.03;4.63;;;;;;;;;;4790754;30;20155;-69
2022/12/06 10:29:44;;;;;;;6.55;3.33;;;;;;;;;;4790608;30;20062;-69
2022/12/06 10:32:29;;;;;;;7.32;2.95;;;;;;;;;;4790870;30;20047;-69
2022/12/06 10:35:05;;;;;;;3.72;2.75;;;;;;;;;;4790792;30;20051;-69
2022/12/06 10:37:46;;;;;;;4.68;2.40;;;;;;;;;;4789977;30;20051;-69
2022/12/06 10:40:15;;;;;;;3.25;2.40;;;;;;;;;;4790843;30;20047;-69
2022/12/06 10:42:41;;;;;;;4.72;2.30;;;;;;;;;;4790578;30;20054;-69
2022/12/06 10:48:06;;;;;;;2.38;2.00;;;;;;;;;;4790205;30;20049;-69
2022/12/06 10:50:34;;;;;;;3.33;2.20;;;;;;;;;;4789833;30;20446;-69
2022/12/06 10:53:03;;;;;;;3.10;2.08;;;;;;;;;;4790348;30;20047;-69
2022/12/06 10:55:36;;;;;;;5.45;2.08;;;;;;;;;;4790155;30;20059;-69
2022/12/06 10:58:02;;;;;;;3.58;2.38;;;;;;;;;;4790517;30;20051;-69
2022/12/06 11:00:30;;;;;;;2.65;2.20;;;;;;;;;;4790138;30;20079;-69
2022/12/06 11:02:56;;;;;;;3.65;2.33;;;;;;;;;;4789904;30;20055;-68
2022/12/06 11:05:25;;;;;;;3.25;2.35;;;;;;;;;;4790076;30;20059;-69
2022/12/06 11:07:53;;;;;;;2.47;2.20;;;;;;;;;;4789904;30;20130;-69
2022/12/06 11:10:22;;;;;;;3.63;2.30;;;;;;;;;;4789702;30;20078;-69
2022/12/06 11:12:53;;;;;;;2.97;1.98;;;;;;;;;;4789958;30;20051;-68
2022/12/06 11:15:22;;;;;;;1.90;1.70;;;;;;;;;;4790189;30;20137;-69
2022/12/06 11:17:50;;;;;;;2.38;1.75;;;;;;;;;;4789800;30;20039;-69
2022/12/06 11:20:30;;;;;;;2.05;1.45;;;;;;;;;;4789859;30;20139;-69
2022/12/06 11:23:11;;;;;;;1.77;1.42;;;;;;;;;;4789700;30;20051;-69
2022/12/06 11:26:02;;;;;;;1.65;1.40;;;;;;;;;;4789819;30;20051;-68
2022/12/06 11:28:36;;;;;;;1.33;1.13;;;;;;;;;;4789604;30;20523;-68
2022/12/06 11:31:06;;;;;;;3.00;1.25;;;;;;;;;;4789323;30;20054;-69
2022/12/06 11:33:33;;;;;;;1.48;1.00;;;;;;;;;;4789824;30;20047;-68
2022/12/06 11:36:01;;;;;;;2.35;1.30;;;;;;;;;;4789026;30;20412;-68
2022/12/06 11:38:27;;;;;;;1.90;1.40;;;;;;;;;;4789251;30;20069;-69
2022/12/06 11:40:56;;;;;;;1.65;1.02;;;;;;;;;;4789187;30;20125;-68
2022/12/06 11:43:28;;;;;;;1.05;0.95;;;;;;;;;;4789607;30;20043;-69
2022/12/06 11:45:56;;;;;;;0.90;0.73;;;;;;;;;;4789038;29;20143;-68
2022/12/06 11:48:27;;;;;;;0.98;0.80;;;;;;;;;;4790060;30;20051;-69
2022/12/06 11:50:53;;;;;;;0.90;0.70;;;;;;;;;;4789672;30;20677;-69
2022/12/06 11:53:25;;;;;;;0.80;0.80;;;;;;;;;;4773216;30;20423;-69
2022/12/06 11:55:53;;;;;;;3.70;1.00;;;;;;;;;;4789039;30;20059;-68
2022/12/06 11:58:43;;;;;;;1.95;1.20;;;;;;;;;;4789615;30;20495;-69
2022/12/06 12:01:13;;;;;;;1.20;1.00;;;;;;;;;;4788686;30;20039;-68
2022/12/06 12:03:41;;;;;;;1.60;1.00;;;;;;;;;;4788705;30;20531;-68
2022/12/06 12:06:18;;;;;;;1.40;0.70;;;;;;;;;;4789138;30;20043;-69
2022/12/06 12:09:10;;;;;;;3.10;1.10;;;;;;;;;;4789087;30;20047;-68
2022/12/06 12:11:40;;;;;;;1.75;1.00;;;;;;;;;;4785562;30;20134;-68
2022/12/06 12:14:14;;;;;;;1.00;0.70;;;;;;;;;;4789149;30;20138;-68
2022/12/06 12:16:45;;;;;;;1.33;0.80;;;;;;;;;;4789004;30;20540;-68
2022/12/06 12:19:30;;;;;;;2.47;0.82;;;;;;;;;;4789132;30;20074;-68
2022/12/06 12:21:58;;;;;;;0.90;0.80;;;;;;;;;;4789232;30;20039;-68
2022/12/06 12:24:44;;;;;;;2.05;0.93;;;;;;;;;;4789150;30;20054;-68
2022/12/06 12:27:29;;;;;;;2.78;0.77;;;;;;;;;;4776476;30;20052;-68
2022/12/06 12:30:14;;;;;;;3.70;0.85;;;;;;;;;;4789376;30;20122;-68
2022/12/06 12:32:40;;;;;;;3.90;0.98;;;;;;;;;;4789186;30;20058;-68
2022/12/06 12:35:35;;;;;;;3.97;0.80;;;;;;;;;;4788684;30;20059;-68
2022/12/06 12:38:11;;;;;;;5.00;1.00;;;;;;;;;;4773122;29;20058;-68
2022/12/06 12:40:38;;;;;;;5.18;1.05;;;;;;;;;;4788974;30;20043;-68
2022/12/06 12:43:04;;;;;;;7.68;1.30;;;;;;;;;;4788583;30;20047;-68
2022/12/06 12:45:31;;;;;;;7.05;1.30;;;;;;;;;;4788887;30;20053;-68
2022/12/06 12:48:01;;;;;;;5.10;1.40;;;;;;;;;;4790053;29;20063;-68
2022/12/06 12:50:29;;;;;;;5.97;1.13;;;;;;;;;;4792396;30;20054;-68
2022/12/06 12:52:55;;;;;;;6.72;0.98;;;;;;;;;;4792207;30;20054;-68
2022/12/06 12:55:23;;;;;;;4.93;1.02;;;;;;;;;;4792239;30;20051;-68
2022/12/06 12:57:51;;;;;;;2.90;0.88;;;;;;;;;;4792232;30;20107;-68
2022/12/06 13:00:18;;;;;;;3.67;1.00;;;;;;;;;;4792626;30;20048;-70
2022/12/06 13:02:47;;;;;;;1.50;0.98;;;;;;;;;;4791139;30;20047;-68
2022/12/06 13:05:16;;;;;;;3.05;0.90;;;;;;;;;;4792111;30;20131;-68
2022/12/06 13:07:42;;;;;;;4.57;0.90;;;;;;;;;;4791898;30;20184;-68
2022/12/06 13:10:11;;;;;;;5.22;1.20;;;;;;;;;;4791924;30;20043;-68
2022/12/06 13:12:45;;;;;;;2.60;1.10;;;;;;;;;;4792131;30;20056;-68
2022/12/06 13:15:30;;;;;;;3.72;1.50;;;;;;;;;;4791590;30;20051;-68
2022/12/06 13:17:59;;;;;;;4.65;1.10;;;;;;;;;;4791902;30;20047;-68
2022/12/06 13:20:33;;;;;;;4.70;1.52;;;;;;;;;;4791773;30;20176;-68
2022/12/06 13:23:18;;;;;;;6.82;1.20;;;;;;;;;;4792019;30;20484;-68
2022/12/06 13:25:50;;;;;;;2.50;1.17;;;;;;;;;;4792371;30;20051;-68
2022/12/06 13:28:18;;;;;;;2.42;1.30;;;;;;;;;;4792283;30;20055;-68
2022/12/06 13:30:45;;;;;;;4.90;1.20;;;;;;;;;;4791429;30;20047;-68
2022/12/06 13:33:25;;;;;;;13.68;1.42;;;;;;;;;;4792240;30;20044;-68
2022/12/06 13:36:17;;;;;;;5.85;1.00;;;;;;;;;;4792049;30;20059;-68
2022/12/06 13:38:44;;;;;;;7.50;1.30;;;;;;;;;;4787846;30;20048;-68
2022/12/06 13:44:40;;;;;;;6.25;2.00;;;;;;;;;;4790986;30;20046;-68
2022/12/06 13:47:36;;;;;;;7.70;2.10;;;;;;;;;;4791392;30;20123;-67
2022/12/06 13:50:04;;;;;;;6.72;2.67;;;;;;;;;;4779415;30;20572;-68
2022/12/06 13:52:56;;;;;;;7.43;2.58;;;;;;;;;;4791032;30;20534;-68
2022/12/06 13:55:25;;;;;;;11.77;2.80;;;;;;;;;;4788421;29;20059;-68
2022/12/06 13:57:54;;;;;;;12.57;2.53;;;;;;;;;;4791033;30;20126;-68
2022/12/06 14:00:29;;;;;;;11.63;2.30;;;;;;;;;;4790323;29;20054;-68
2022/12/06 14:02:57;;;;;;;12.98;2.78;;;;;;;;;;4790962;30;20051;-68
2022/12/06 14:05:41;;;;;;;11.52;2.97;;;;;;;;;;4791153;30;20085;-68
2022/12/06 14:08:13;;;;;;;10.13;2.60;;;;;;;;;;4790693;30;20050;-68
2022/12/06 14:10:39;;;;;;;3.80;2.42;;;;;;;;;;4791271;30;20047;-68
2022/12/06 14:13:05;;;;;;;4.50;2.20;;;;;;;;;;4791592;30;20054;-68
2022/12/06 14:15:34;;;;;;;5.70;2.72;;;;;;;;;;4790518;30;20138;-69
2022/12/06 14:18:01;;;;;;;3.45;2.75;;;;;;;;;;4790852;30;20499;-68
2022/12/06 14:20:28;;;;;;;5.88;3.10;;;;;;;;;;4790879;30;20134;-68
2022/12/06 14:22:54;;;;;;;5.07;2.85;;;;;;;;;;4790173;30;20404;-68
2022/12/06 14:25:22;;;;;;;4.65;2.53;;;;;;;;;;4798701;29;20051;-69
2022/12/06 14:27:50;;;;;;;5.72;2.47;;;;;;;;;;4808137;29;20039;-69
2022/12/06 14:30:20;;;;;;;7.15;2.28;;;;;;;;;;4823682;29;20050;-69
2022/12/06 14:32:47;;;;;;;4.15;2.05;;;;;;;;;;4826274;29;20050;-69
2022/12/06 14:35:17;;;;;;;3.72;1.80;;;;;;;;;;4826243;29;20525;-69
2022/12/06 14:38:09;;;;;;;3.90;1.77;;;;;;;;;;4825945;29;20070;-69
2022/12/06 14:43:22;;;;;;;4.40;2.42;;;;;;;;;;4826002;29;20045;-69
2022/12/06 14:45:48;;;;;;;3.50;2.28;;;;;;;;;;4825750;29;20077;-69
2022/12/06 14:48:15;;;;;;;5.95;2.30;;;;;;;;;;4826295;29;20045;-69
2022/12/06 14:50:48;;;;;;;5.00;2.42;;;;;;;;;;4826116;29;20079;-68
2022/12/06 14:53:27;;;;;;;4.40;2.15;;;;;;;;;;4826451;29;20042;-69
2022/12/06 14:55:55;;;;;;;3.00;2.08;;;;;;;;;;4826662;29;20062;-69
2022/12/06 14:58:23;;;;;;;3.05;2.03;;;;;;;;;;4826282;29;20055;-69
2022/12/06 15:00:49;;;;;;;3.08;2.10;;;;;;;;;;4826053;29;20151;-69
2022/12/06 15:03:21;;;;;;;4.10;1.88;;;;;;;;;;4825807;29;20449;-68
2022/12/06 15:05:49;;;;;;;4.00;2.30;;;;;;;;;;4825717;29;20115;-69
2022/12/06 15:08:17;;;;;;;4.05;2.50;;;;;;;;;;4825592;29;20518;-69
2022/12/06 15:10:57;;;;;;;3.45;2.30;;;;;;;;;;4825799;29;20046;-69
2022/12/06 15:13:24;;;;;;;4.43;2.15;;;;;;;;;;4825967;29;20053;-69
2022/12/06 15:16:02;;;;;;;3.17;2.28;;;;;;;;;;4825612;29;20054;-69
2022/12/06 15:18:31;;;;;;;3.42;2.53;;;;;;;;;;4826251;29;20053;-69
2022/12/06 15:20:57;;;;;;;4.63;2.35;;;;;;;;;;4825760;29;20042;-69